Time;durP1;ratioP1;P1;durP2;ratioP2;P2;SDS_P1;SDS_P2;PMS_P1;PMS_P2;Temp;Humidity;BMP_temperature;BMP_pressure;BME280_temperature;BME280_humidity;BME280_pressure;Samples;Min_cycle;Max_cycle;Signal;HPM_P1;HPM_P2
2023/09/22 00:02:25;;;;;;;3.17;0.80;;;12.20;99.90;;;;;;5039766;28;20045;-58
2023/09/22 00:04:52;;;;;;;2.65;0.93;;;12.20;99.90;;;;;;5040357;28;20199;-61
2023/09/22 00:07:19;;;;;;;3.58;0.80;;;12.20;99.90;;;;;;5040068;28;20037;-58
2023/09/22 00:09:46;;;;;;;2.80;0.77;;;12.20;99.90;;;;;;5040347;28;20045;-58
2023/09/22 00:12:13;;;;;;;3.00;0.95;;;12.20;99.90;;;;;;5039857;28;20064;-58
2023/09/22 00:14:40;;;;;;;3.55;0.80;;;12.20;99.90;;;;;;5022442;28;20042;-57
2023/09/22 00:17:07;;;;;;;4.45;0.93;;;12.20;99.90;;;;;;5040107;28;20068;-60
2023/09/22 00:19:35;;;;;;;3.40;1.00;;;12.20;99.90;;;;;;5039722;28;20042;-58
2023/09/22 00:22:03;;;;;;;3.10;0.90;;;12.20;99.90;;;;;;5039629;28;20045;-58
2023/09/22 00:24:29;;;;;;;3.42;1.25;;;12.20;99.90;;;;;;5039745;28;20045;-52
2023/09/22 00:26:56;;;;;;;2.30;0.70;;;12.10;99.90;;;;;;5039163;28;20128;-60
2023/09/22 00:29:23;;;;;;;5.45;1.00;;;12.10;99.90;;;;;;5038512;28;20037;-59
2023/09/22 00:31:50;;;;;;;3.83;0.85;;;12.10;99.90;;;;;;5054522;28;20061;-59
2023/09/22 00:34:17;;;;;;;2.90;1.00;;;12.10;99.90;;;;;;5039694;28;20481;-58
2023/09/22 00:36:44;;;;;;;3.03;0.88;;;12.10;99.90;;;;;;5039616;28;20036;-59
2023/09/22 00:39:11;;;;;;;3.90;1.27;;;12.10;99.90;;;;;;5038257;28;20409;-59
2023/09/22 00:41:38;;;;;;;2.38;0.93;;;12.10;99.90;;;;;;5039630;28;20045;-59
2023/09/22 00:44:05;;;;;;;4.20;0.90;;;12.10;99.90;;;;;;5038274;28;20037;-59
2023/09/22 00:46:32;;;;;;;3.38;1.10;;;12.10;99.90;;;;;;5038347;28;20440;-57
2023/09/22 00:48:59;;;;;;;5.38;1.35;;;12.00;99.90;;;;;;5039192;28;20077;-59
2023/09/22 00:51:26;;;;;;;3.58;1.02;;;12.00;99.90;;;;;;5037909;28;20136;-56
2023/09/22 00:53:54;;;;;;;3.85;0.98;;;12.00;99.90;;;;;;5039240;28;20481;-59
2023/09/22 00:56:21;;;;;;;3.45;1.10;;;12.00;99.90;;;;;;5039426;28;20042;-59
2023/09/22 00:58:49;;;;;;;2.55;0.80;;;12.00;99.90;;;;;;5054265;28;20507;-57
2023/09/22 01:01:16;;;;;;;6.63;0.98;;;12.00;99.90;;;;;;5037832;28;20495;-60
2023/09/22 01:03:42;;;;;;;3.95;1.13;;;12.00;99.90;;;;;;5039135;28;20056;-57
2023/09/22 01:06:10;;;;;;;2.78;1.10;;;12.00;99.90;;;;;;5039351;28;20056;-60
2023/09/22 01:08:37;;;;;;;3.28;1.00;;;12.00;99.90;;;;;;5033873;28;20041;-57
2023/09/22 01:11:04;;;;;;;5.03;1.00;;;12.00;99.90;;;;;;5036345;28;20037;-59
2023/09/22 01:13:31;;;;;;;9.80;1.45;;;12.00;99.90;;;;;;5034588;28;20043;-58
2023/09/22 01:15:58;;;;;;;5.60;1.40;;;12.00;99.90;;;;;;5051313;28;20108;-58
2023/09/22 01:18:25;;;;;;;4.32;1.10;;;12.00;99.90;;;;;;5051269;28;20037;-58
2023/09/22 01:20:57;;;;;;;5.28;1.23;;;12.00;99.90;;;;;;5035975;28;20061;-57
2023/09/22 01:23:24;;;;;;;4.35;1.30;;;12.00;99.90;;;;;;5034888;28;20049;-58
2023/09/22 01:25:50;;;;;;;4.38;1.20;;;12.00;99.90;;;;;;5035965;28;20033;-57
2023/09/22 01:28:17;;;;;;;4.85;1.33;;;12.00;99.90;;;;;;5034578;28;20041;-57
2023/09/22 01:30:44;;;;;;;5.78;1.23;;;12.00;99.90;;;;;;5050982;28;20045;-56
2023/09/22 01:33:11;;;;;;;7.75;1.30;;;12.00;99.90;;;;;;5035782;28;20037;-58
2023/09/22 01:35:37;;;;;;;3.50;1.40;;;12.00;99.90;;;;;;5036121;28;20041;-57
2023/09/22 01:38:04;;;;;;;7.18;1.30;;;12.00;99.90;;;;;;5035466;28;20060;-56
2023/09/22 01:40:31;;;;;;;4.72;1.48;;;12.00;99.90;;;;;;5035526;28;20096;-55
2023/09/22 01:42:58;;;;;;;6.22;1.50;;;12.00;99.90;;;;;;5035560;28;20065;-56
2023/09/22 01:45:25;;;;;;;4.22;1.45;;;12.00;99.90;;;;;;5050880;28;20551;-58
2023/09/22 01:47:52;;;;;;;5.20;1.33;;;12.00;99.90;;;;;;5034173;28;20045;-57
2023/09/22 01:50:19;;;;;;;6.25;1.48;;;12.10;99.90;;;;;;5033968;28;20050;-56
2023/09/22 01:52:47;;;;;;;3.13;1.40;;;12.10;99.90;;;;;;5034162;28;20067;-59
2023/09/22 01:55:14;;;;;;;6.35;1.42;;;12.00;99.90;;;;;;5035242;28;20435;-58
2023/09/22 01:57:41;;;;;;;4.55;1.50;;;12.00;99.90;;;;;;5035392;28;20405;-55
2023/09/22 02:00:07;;;;;;;5.93;1.20;;;12.00;99.90;;;;;;5033950;28;20080;-59
2023/09/22 02:02:42;;;;;;;5.38;1.30;;;12.00;99.90;;;;;;5035163;28;20140;-57
2023/09/22 02:05:11;;;;;;;5.47;1.30;;;12.00;99.90;;;;;;5035003;28;20049;-58
2023/09/22 02:07:38;;;;;;;6.78;1.33;;;12.00;99.90;;;;;;5050139;28;20372;-57
2023/09/22 02:10:05;;;;;;;4.05;1.77;;;12.00;99.90;;;;;;5034070;28;20473;-60
2023/09/22 02:12:32;;;;;;;5.60;1.50;;;12.00;99.90;;;;;;5035186;28;20389;-59
2023/09/22 02:15:00;;;;;;;3.90;1.40;;;12.00;99.90;;;;;;5035062;28;20041;-59
2023/09/22 02:17:27;;;;;;;7.60;1.60;;;12.00;99.90;;;;;;5034258;28;20074;-58
2023/09/22 02:19:55;;;;;;;4.05;1.33;;;12.00;99.90;;;;;;5032003;28;20049;-57
2023/09/22 02:22:22;;;;;;;4.80;1.65;;;12.00;99.90;;;;;;5034334;28;20396;-56
2023/09/22 02:24:48;;;;;;;5.85;1.70;;;12.00;99.90;;;;;;5034916;28;20124;-57
2023/09/22 02:27:15;;;;;;;6.38;1.58;;;11.90;99.90;;;;;;5034542;28;20041;-55
2023/09/22 02:29:42;;;;;;;5.97;1.60;;;11.90;99.90;;;;;;5016951;28;20079;-57
2023/09/22 02:32:09;;;;;;;4.97;1.52;;;11.90;99.90;;;;;;5033118;28;20047;-57
2023/09/22 02:34:36;;;;;;;8.02;2.28;;;11.90;99.90;;;;;;5034859;28;20037;-58
2023/09/22 02:37:03;;;;;;;5.53;2.15;;;11.80;99.90;;;;;;5034448;28;20061;-59
2023/09/22 02:39:30;;;;;;;5.88;1.88;;;11.80;99.90;;;;;;5033230;28;20068;-56
2023/09/22 02:41:57;;;;;;;3.50;1.63;;;11.80;99.90;;;;;;5049333;28;20487;-58
2023/09/22 02:44:23;;;;;;;4.78;1.40;;;11.80;99.90;;;;;;5034290;28;20588;-59
2023/09/22 02:46:50;;;;;;;4.63;1.90;;;11.80;99.90;;;;;;5034357;28;20049;-55
2023/09/22 02:49:17;;;;;;;4.28;1.90;;;11.70;99.90;;;;;;5032518;28;20060;-56
2023/09/22 02:51:44;;;;;;;7.80;2.97;;;11.70;99.90;;;;;;5032614;28;20477;-56
2023/09/22 02:54:11;;;;;;;3.05;1.65;;;11.60;99.90;;;;;;5033002;28;20041;-58
2023/09/22 02:56:38;;;;;;;3.05;1.55;;;11.60;99.90;;;;;;5015926;28;20395;-58
2023/09/22 02:59:04;;;;;;;7.68;2.15;;;11.50;99.90;;;;;;5033027;28;20447;-58
2023/09/22 03:01:31;;;;;;;5.55;1.98;;;11.50;99.90;;;;;;5032454;28;20100;-60
2023/09/22 03:03:58;;;;;;;5.43;2.20;;;11.50;99.90;;;;;;5034114;28;20054;-58
2023/09/22 03:06:25;;;;;;;4.75;2.10;;;11.50;99.90;;;;;;5034070;28;20045;-56
2023/09/22 03:08:52;;;;;;;4.80;2.22;;;11.40;99.90;;;;;;5032148;28;20560;-57
2023/09/22 03:11:19;;;;;;;7.45;2.20;;;11.40;99.90;;;;;;5032092;28;20061;-57
2023/09/22 03:13:47;;;;;;;5.32;2.22;;;11.40;99.90;;;;;;5034037;28;20060;-58
2023/09/22 03:16:14;;;;;;;7.20;2.70;;;11.40;99.90;;;;;;5032359;28;20037;-54
2023/09/22 03:18:41;;;;;;;6.38;2.30;;;11.40;99.90;;;;;;5033719;28;20048;-58
2023/09/22 03:21:09;;;;;;;5.38;2.40;;;11.40;99.90;;;;;;5032454;28;20200;-58
2023/09/22 03:23:36;;;;;;;3.35;2.03;;;11.40;99.90;;;;;;5032651;28;20073;-54
2023/09/22 03:26:03;;;;;;;5.60;2.25;;;11.50;99.90;;;;;;5032599;28;20045;-59
2023/09/22 03:28:29;;;;;;;7.85;2.22;;;11.50;99.90;;;;;;5015479;28;20080;-56
2023/09/22 03:30:56;;;;;;;8.20;2.40;;;11.50;99.90;;;;;;5033082;28;20033;-57
2023/09/22 03:33:23;;;;;;;4.60;2.22;;;11.50;99.90;;;;;;5032053;28;20045;-56
2023/09/22 03:35:50;;;;;;;6.30;2.40;;;11.60;99.90;;;;;;5032163;28;20033;-59
2023/09/22 03:38:17;;;;;;;6.80;2.42;;;11.60;99.90;;;;;;5031951;28;20099;-57
2023/09/22 03:40:44;;;;;;;7.07;2.85;;;11.60;99.90;;;;;;5033230;28;20045;-58
2023/09/22 03:43:10;;;;;;;4.07;2.20;;;11.60;99.90;;;;;;5033325;28;20372;-58
2023/09/22 03:45:37;;;;;;;7.97;2.45;;;11.50;99.90;;;;;;5031729;28;20056;-59
2023/09/22 03:48:04;;;;;;;4.55;2.42;;;11.50;99.90;;;;;;5031755;28;20045;-57
2023/09/22 03:50:32;;;;;;;4.78;2.60;;;11.50;99.90;;;;;;5031698;28;20050;-56
2023/09/22 03:52:59;;;;;;;8.00;2.13;;;11.50;99.90;;;;;;5031723;28;20454;-58
2023/09/22 03:55:26;;;;;;;4.20;2.50;;;11.50;99.90;;;;;;5032073;28;20099;-59
2023/09/22 03:57:53;;;;;;;4.38;2.30;;;11.50;99.90;;;;;;5031302;28;20038;-56
2023/09/22 04:00:27;;;;;;;6.57;2.70;;;11.50;99.90;;;;;;5031710;28;20048;-57
2023/09/22 04:02:54;;;;;;;8.15;2.15;;;11.50;99.90;;;;;;5032186;28;20115;-57
2023/09/22 04:05:21;;;;;;;5.63;2.25;;;11.40;99.90;;;;;;5032999;28;20068;-58
2023/09/22 04:07:48;;;;;;;5.50;2.20;;;11.40;99.90;;;;;;5033083;28;20043;-55
2023/09/22 04:10:16;;;;;;;7.13;2.78;;;11.40;99.90;;;;;;5031437;28;20443;-56
2023/09/22 04:12:44;;;;;;;7.28;2.40;;;11.30;99.90;;;;;;5031379;28;20049;-59
2023/09/22 04:15:11;;;;;;;5.88;2.72;;;11.30;99.90;;;;;;5033017;28;20038;-57
2023/09/22 04:17:40;;;;;;;5.28;2.40;;;11.30;99.90;;;;;;5032873;28;20040;-57
2023/09/22 04:20:08;;;;;;;6.15;2.20;;;11.30;99.90;;;;;;5032703;28;20051;-57
2023/09/22 04:22:35;;;;;;;6.28;2.13;;;11.30;99.90;;;;;;5033310;28;20378;-58
2023/09/22 04:25:10;;;;;;;3.95;2.25;;;11.20;99.90;;;;;;5033450;28;20049;-59
2023/09/22 04:27:43;;;;;;;7.53;2.80;;;11.20;99.90;;;;;;5033062;28;20072;-54
2023/09/22 04:30:11;;;;;;;7.15;2.65;;;11.20;99.90;;;;;;5033340;28;20041;-59
2023/09/22 04:32:38;;;;;;;5.28;2.58;;;11.20;99.90;;;;;;5033034;28;20037;-59
2023/09/22 04:35:08;;;;;;;4.75;2.40;;;11.10;99.90;;;;;;5033208;28;20107;-58
2023/09/22 04:37:36;;;;;;;6.40;2.15;;;11.10;99.90;;;;;;5032438;28;20037;-56
2023/09/22 04:40:03;;;;;;;7.40;2.40;;;11.10;99.90;;;;;;5033184;28;20385;-56
2023/09/22 04:42:30;;;;;;;8.90;2.58;;;11.00;99.90;;;;;;5033756;28;20042;-57
2023/09/22 04:44:58;;;;;;;7.38;2.55;;;11.00;99.90;;;;;;5037019;28;20142;-56
2023/09/22 04:47:24;;;;;;;6.55;2.70;;;11.00;99.90;;;;;;5036782;28;20136;-59
2023/09/22 04:49:51;;;;;;;5.50;2.60;;;11.00;99.90;;;;;;5036162;28;20054;-57
2023/09/22 04:52:18;;;;;;;7.47;2.22;;;11.00;99.90;;;;;;5036056;28;20392;-58
2023/09/22 04:54:45;;;;;;;8.15;2.50;;;11.00;99.90;;;;;;5036596;28;20392;-54
2023/09/22 04:57:11;;;;;;;9.85;2.70;;;11.00;99.90;;;;;;5036334;28;20041;-58
2023/09/22 04:59:40;;;;;;;6.53;2.97;;;10.90;99.90;;;;;;5035987;28;20046;-59
2023/09/22 05:02:07;;;;;;;7.25;2.78;;;11.00;99.90;;;;;;5036347;28;20038;-56
2023/09/22 05:04:34;;;;;;;5.20;2.60;;;10.90;99.90;;;;;;5035865;28;20566;-55
2023/09/22 05:07:01;;;;;;;7.97;2.70;;;10.90;99.90;;;;;;5036147;28;20049;-56
2023/09/22 05:09:28;;;;;;;8.73;2.78;;;10.90;99.90;;;;;;5036187;28;20465;-59
2023/09/22 05:11:55;;;;;;;7.13;2.50;;;10.90;99.90;;;;;;5035649;28;20037;-54
2023/09/22 05:14:21;;;;;;;6.20;2.80;;;10.90;99.90;;;;;;5036292;28;20041;-55
2023/09/22 05:16:48;;;;;;;5.88;2.53;;;10.90;99.90;;;;;;5035750;28;20033;-55
2023/09/22 05:19:15;;;;;;;8.80;2.88;;;10.80;99.90;;;;;;5035978;28;20542;-54
2023/09/22 05:21:42;;;;;;;6.00;2.63;;;10.80;99.90;;;;;;5034418;28;20136;-57
2023/09/22 05:24:09;;;;;;;5.43;2.88;;;10.90;99.90;;;;;;5035958;28;20052;-54
2023/09/22 05:26:35;;;;;;;6.20;2.55;;;10.90;99.90;;;;;;5035896;28;20041;-54
2023/09/22 05:29:03;;;;;;;5.32;2.55;;;10.90;99.90;;;;;;5036015;28;20052;-56
2023/09/22 05:31:29;;;;;;;8.00;2.60;;;10.90;99.90;;;;;;5036289;28;20049;-55
2023/09/22 05:33:56;;;;;;;6.28;2.85;;;11.00;99.90;;;;;;5036154;28;20037;-55
2023/09/22 05:36:23;;;;;;;6.25;2.63;;;11.00;99.90;;;;;;5035623;28;20048;-57
2023/09/22 05:38:50;;;;;;;8.20;2.92;;;10.90;99.90;;;;;;5035658;28;20042;-56
2023/09/22 05:41:17;;;;;;;6.75;2.90;;;10.90;99.90;;;;;;5035960;28;20038;-58
2023/09/22 05:43:44;;;;;;;7.43;2.42;;;11.00;99.90;;;;;;5035635;28;20092;-58
2023/09/22 05:46:11;;;;;;;7.05;2.90;;;11.00;99.90;;;;;;5035586;28;20049;-59
2023/09/22 05:48:38;;;;;;;5.28;2.80;;;10.90;99.90;;;;;;5035331;28;20037;-58
2023/09/22 05:51:05;;;;;;;10.02;2.80;;;11.00;99.90;;;;;;5035614;28;20128;-59
2023/09/22 05:53:32;;;;;;;4.95;2.70;;;11.00;99.90;;;;;;5035012;28;20037;-55
2023/09/22 05:55:59;;;;;;;7.43;3.15;;;11.00;99.90;;;;;;5034446;28;20389;-57
2023/09/22 05:58:26;;;;;;;7.57;3.30;;;11.00;99.90;;;;;;5035449;28;20034;-60
2023/09/22 06:00:53;;;;;;;6.00;2.92;;;11.00;99.90;;;;;;5034952;28;20056;-58
2023/09/22 06:03:20;;;;;;;8.45;3.20;;;11.10;99.90;;;;;;5035148;28;20457;-59
2023/09/22 06:05:47;;;;;;;8.90;3.42;;;11.10;99.90;;;;;;5035158;28;20049;-55
2023/09/22 06:08:17;;;;;;;6.30;3.25;;;11.20;99.90;;;;;;5035532;28;20099;-55
2023/09/22 06:10:44;;;;;;;5.75;3.33;;;11.20;99.90;;;;;;5033920;28;20100;-58
2023/09/22 06:13:10;;;;;;;6.65;3.28;;;11.20;99.90;;;;;;5034860;28;20041;-60
2023/09/22 06:15:37;;;;;;;5.32;3.42;;;11.20;99.90;;;;;;5034984;28;20120;-59
2023/09/22 06:18:04;;;;;;;7.32;3.78;;;11.20;99.90;;;;;;5034440;28;20049;-59
2023/09/22 06:20:31;;;;;;;9.05;3.67;;;11.20;99.90;;;;;;5033090;28;20077;-51
2023/09/22 06:22:58;;;;;;;6.07;3.42;;;11.30;99.90;;;;;;5034775;28;20443;-55
2023/09/22 06:25:26;;;;;;;5.78;3.33;;;11.30;99.90;;;;;;5034113;28;20128;-54
2023/09/22 06:27:54;;;;;;;5.70;3.67;;;11.30;99.90;;;;;;5034157;28;20107;-54
2023/09/22 06:30:21;;;;;;;7.55;3.92;;;11.40;99.90;;;;;;5034529;28;20084;-55
2023/09/22 06:32:48;;;;;;;8.05;4.30;;;11.50;99.90;;;;;;5034677;28;20091;-59
2023/09/22 06:35:15;;;;;;;8.25;4.55;;;11.50;99.90;;;;;;5034686;28;20037;-56
2023/09/22 06:37:42;;;;;;;8.38;4.43;;;11.50;99.90;;;;;;5034281;28;20061;-58
2023/09/22 06:40:12;;;;;;;8.82;4.80;;;11.50;99.90;;;;;;5034477;28;20437;-60
2023/09/22 06:42:41;;;;;;;10.82;5.13;;;11.50;99.90;;;;;;5034464;28;20060;-56
2023/09/22 06:45:09;;;;;;;12.02;5.50;;;11.60;99.90;;;;;;5034395;28;20045;-59
2023/09/22 06:47:36;;;;;;;9.00;6.28;;;11.60;99.90;;;;;;5034209;28;20057;-58
2023/09/22 06:50:06;;;;;;;9.57;5.93;;;11.60;99.90;;;;;;5033826;28;20081;-58
2023/09/22 06:52:34;;;;;;;10.65;5.55;;;11.70;99.90;;;;;;5034478;28;20037;-55
2023/09/22 06:55:00;;;;;;;7.57;5.70;;;11.70;99.90;;;;;;5034238;28;20370;-59
2023/09/22 06:57:28;;;;;;;13.77;6.00;;;11.80;99.90;;;;;;5033962;28;20067;-59
2023/09/22 06:59:56;;;;;;;9.00;5.55;;;11.80;99.90;;;;;;5033121;28;20124;-58
2023/09/22 07:02:22;;;;;;;8.75;5.22;;;11.80;99.90;;;;;;5033690;28;20041;-59
2023/09/22 07:04:49;;;;;;;9.55;6.07;;;11.80;99.90;;;;;;5032212;28;20068;-58
2023/09/22 07:07:16;;;;;;;10.60;6.28;;;11.90;99.90;;;;;;5034251;28;20077;-58
2023/09/22 07:09:43;;;;;;;9.63;5.75;;;11.90;99.90;;;;;;5033713;28;20042;-57
2023/09/22 07:12:10;;;;;;;8.40;5.65;;;11.90;99.90;;;;;;5033754;28;20038;-56
2023/09/22 07:14:36;;;;;;;9.40;5.75;;;12.00;99.90;;;;;;5036117;28;20037;-56
2023/09/22 07:17:03;;;;;;;8.82;5.28;;;12.00;99.90;;;;;;5032547;28;20069;-58
2023/09/22 07:19:32;;;;;;;8.65;5.28;;;12.00;99.90;;;;;;5033844;28;20041;-58
2023/09/22 07:21:59;;;;;;;8.68;6.03;;;11.90;99.90;;;;;;5034164;28;20048;-53
2023/09/22 07:24:26;;;;;;;10.90;5.75;;;12.00;99.90;;;;;;5033632;28;20044;-53
2023/09/22 07:26:53;;;;;;;12.20;5.57;;;12.00;99.90;;;;;;5032964;28;20056;-57
2023/09/22 07:29:20;;;;;;;11.45;6.10;;;12.10;99.90;;;;;;5027132;28;20040;-59
2023/09/22 07:31:47;;;;;;;8.70;5.90;;;12.10;99.90;;;;;;5025883;28;20117;-60
2023/09/22 07:34:14;;;;;;;9.68;5.60;;;12.10;99.90;;;;;;5018845;28;20092;-58
2023/09/22 07:36:41;;;;;;;9.10;5.30;;;12.10;99.90;;;;;;5029112;28;20053;-58
2023/09/22 07:39:09;;;;;;;8.20;5.43;;;12.10;99.90;;;;;;5033467;28;20046;-61
2023/09/22 07:41:36;;;;;;;8.65;5.95;;;12.10;99.90;;;;;;5032912;28;20133;-59
2023/09/22 07:44:04;;;;;;;11.05;6.18;;;12.10;99.90;;;;;;5032991;28;20045;-56
2023/09/22 07:46:31;;;;;;;7.82;5.95;;;12.10;99.90;;;;;;5033121;28;20068;-57
2023/09/22 07:48:58;;;;;;;8.55;6.30;;;12.10;99.90;;;;;;5031926;28;20056;-58
2023/09/22 07:51:25;;;;;;;8.48;6.38;;;12.10;99.90;;;;;;5033055;28;20047;-55
2023/09/22 07:53:51;;;;;;;10.32;6.07;;;12.10;99.90;;;;;;5033263;28;20045;-53
2023/09/22 07:56:19;;;;;;;10.30;6.65;;;12.10;99.90;;;;;;5033268;28;20044;-57
2023/09/22 07:58:46;;;;;;;83.68;11.25;;;12.10;99.90;;;;;;5033127;28;20401;-57
2023/09/22 08:01:33;;;;;;;13.40;6.82;;;12.10;99.90;;;;;;5033391;28;20053;-57
2023/09/22 08:04:00;;;;;;;14.13;6.53;;;12.10;99.90;;;;;;5033096;28;20040;-57
2023/09/22 08:06:31;;;;;;;7.82;5.95;;;12.10;99.90;;;;;;5032784;28;20117;-57
2023/09/22 08:08:58;;;;;;;11.55;6.43;;;12.10;99.90;;;;;;5032805;28;20069;-55
2023/09/22 08:11:25;;;;;;;10.02;5.90;;;12.10;99.90;;;;;;5032686;28;20485;-58
2023/09/22 08:13:51;;;;;;;8.60;6.18;;;12.10;99.90;;;;;;5032887;28;20038;-55
2023/09/22 08:16:18;;;;;;;8.63;5.68;;;12.00;99.90;;;;;;5033568;28;20132;-59
2023/09/22 08:18:45;;;;;;;8.48;6.07;;;12.00;99.90;;;;;;5036762;28;20033;-56
2023/09/22 08:21:12;;;;;;;7.75;5.82;;;12.00;99.90;;;;;;5037032;28;20095;-58
2023/09/22 08:23:40;;;;;;;8.02;6.07;;;12.00;99.90;;;;;;5037195;28;20503;-56
2023/09/22 08:26:17;;;;;;;9.65;6.18;;;12.00;99.90;;;;;;5037305;28;20045;-54
2023/09/22 08:28:44;;;;;;;8.88;6.60;;;12.00;99.90;;;;;;5036542;28;20041;-56
2023/09/22 08:31:12;;;;;;;9.77;7.13;;;12.00;99.90;;;;;;5036466;28;20128;-59
2023/09/22 08:33:38;;;;;;;12.25;7.78;;;12.00;99.90;;;;;;5036956;28;20072;-58
2023/09/22 08:36:05;;;;;;;9.20;7.25;;;12.10;99.90;;;;;;5036743;28;20065;-56
2023/09/22 08:38:32;;;;;;;12.73;7.40;;;12.10;99.90;;;;;;5036141;28;20404;-56
2023/09/22 08:40:59;;;;;;;8.63;7.05;;;12.10;99.90;;;;;;5035613;28;20034;-55
2023/09/22 08:43:26;;;;;;;11.60;7.22;;;12.10;99.90;;;;;;5034903;28;20100;-57
2023/09/22 08:45:53;;;;;;;9.25;7.10;;;12.10;99.90;;;;;;5034850;28;20050;-59
2023/09/22 08:48:20;;;;;;;11.57;7.20;;;12.20;99.90;;;;;;5036127;28;20046;-57
2023/09/22 08:50:47;;;;;;;9.35;7.88;;;12.20;99.90;;;;;;5034791;28;20057;-52
2023/09/22 08:53:14;;;;;;;11.55;7.93;;;12.30;99.90;;;;;;5036105;28;20041;-59
2023/09/22 08:55:41;;;;;;;11.60;7.45;;;12.30;99.90;;;;;;5023469;28;20042;-60
2023/09/22 08:58:08;;;;;;;10.70;8.15;;;12.30;99.90;;;;;;5033366;28;20038;-56
2023/09/22 09:00:35;;;;;;;9.20;7.88;;;12.30;99.90;;;;;;5034425;28;20054;-60
2023/09/22 09:03:02;;;;;;;10.05;7.82;;;12.20;99.90;;;;;;5034965;28;20115;-60
2023/09/22 09:05:29;;;;;;;11.35;8.32;;;12.20;99.90;;;;;;5035605;28;20477;-60
2023/09/22 09:07:56;;;;;;;13.23;9.27;;;12.30;99.90;;;;;;5034658;28;20049;-52
2023/09/22 09:10:23;;;;;;;12.05;8.15;;;12.30;99.90;;;;;;5035252;28;20560;-57
2023/09/22 09:12:49;;;;;;;13.07;8.57;;;12.30;99.90;;;;;;5035734;28;20420;-55
2023/09/22 09:15:16;;;;;;;15.10;8.63;;;12.40;99.90;;;;;;5035103;28;20053;-58
2023/09/22 09:17:43;;;;;;;11.57;8.93;;;12.50;99.90;;;;;;5035352;28;20069;-58
2023/09/22 09:20:10;;;;;;;12.52;8.20;;;12.60;99.90;;;;;;5033034;28;20041;-59
2023/09/22 09:22:37;;;;;;;15.15;9.05;;;12.70;99.90;;;;;;5035218;28;20116;-52
2023/09/22 09:25:10;;;;;;;12.82;8.52;;;12.70;99.90;;;;;;5034836;28;20037;-58
2023/09/22 09:27:39;;;;;;;11.95;8.85;;;12.80;99.90;;;;;;5034870;28;20045;-55
2023/09/22 09:30:15;;;;;;;17.00;8.50;;;12.80;99.90;;;;;;5026405;28;20409;-59
2023/09/22 09:32:42;;;;;;;44.55;10.32;;;12.80;99.90;;;;;;5035254;28;20400;-57
2023/09/22 09:35:11;;;;;;;11.95;8.30;;;12.80;99.90;;;;;;5034365;28;20117;-54
2023/09/22 09:37:40;;;;;;;10.93;8.07;;;12.90;99.90;;;;;;5034926;28;20038;-58
2023/09/22 09:40:10;;;;;;;10.15;8.77;;;12.90;99.90;;;;;;5028529;28;20042;-56
2023/09/22 09:42:38;;;;;;;10.30;8.18;;;13.00;99.90;;;;;;5032579;28;20157;-56
2023/09/22 09:45:05;;;;;;;9.30;7.10;;;13.00;99.90;;;;;;5034885;28;20046;-57
2023/09/22 09:47:36;;;;;;;14.80;7.57;;;13.00;99.90;;;;;;5021602;28;20046;-57
2023/09/22 09:50:06;;;;;;;11.00;7.40;;;13.10;99.90;;;;;;5033488;28;20050;-56
2023/09/22 09:52:33;;;;;;;11.93;7.90;;;13.10;99.90;;;;;;5034715;28;20046;-60
2023/09/22 09:55:01;;;;;;;9.80;7.38;;;13.20;99.90;;;;;;5033949;28;20044;-56
2023/09/22 09:57:28;;;;;;;8.68;6.78;;;13.30;99.90;;;;;;5034575;28;20076;-59
2023/09/22 09:59:55;;;;;;;8.43;6.13;;;13.40;99.90;;;;;;5034027;28;20045;-53
2023/09/22 10:02:22;;;;;;;10.68;6.13;;;13.40;99.90;;;;;;5033035;28;20037;-55
2023/09/22 10:04:48;;;;;;;8.52;6.13;;;13.50;99.90;;;;;;5034614;28;20346;-57
2023/09/22 10:07:15;;;;;;;8.30;5.53;;;13.50;99.90;;;;;;5033494;28;20077;-53
2023/09/22 10:09:42;;;;;;;10.05;6.30;;;13.60;99.90;;;;;;5034383;28;20038;-59
2023/09/22 10:12:09;;;;;;;11.57;6.15;;;13.70;99.90;;;;;;5033604;28;20103;-55
2023/09/22 10:14:36;;;;;;;48.42;6.38;;;13.80;99.90;;;;;;5034701;28;20048;-58
2023/09/22 10:17:02;;;;;;;10.50;3.83;;;13.90;99.90;;;;;;5027832;28;20041;-55
2023/09/22 10:19:29;;;;;;;6.75;3.80;;;13.90;99.90;;;;;;5033825;28;20041;-59
2023/09/22 10:21:57;;;;;;;5.75;3.92;;;14.00;99.90;;;;;;5031089;28;20052;-60
2023/09/22 10:24:25;;;;;;;6.72;3.70;;;14.10;99.90;;;;;;5032750;28;20041;-61
2023/09/22 10:26:52;;;;;;;6.50;3.78;;;14.10;99.90;;;;;;5033591;28;20037;-55
2023/09/22 10:29:19;;;;;;;5.30;2.45;;;14.10;99.90;;;;;;5033121;28;20042;-57
2023/09/22 10:31:45;;;;;;;7.65;2.83;;;14.10;99.90;;;;;;5033518;28;20061;-52
2023/09/22 10:34:12;;;;;;;8.13;3.10;;;14.20;99.90;;;;;;5032293;28;20045;-59
2023/09/22 10:36:39;;;;;;;5.20;2.90;;;14.30;99.90;;;;;;5033638;28;20069;-60
2023/09/22 10:39:07;;;;;;;7.13;2.78;;;14.30;99.90;;;;;;5033696;28;20037;-56
2023/09/22 10:41:35;;;;;;;6.90;2.50;;;14.40;99.90;;;;;;5032085;28;20049;-56
2023/09/22 10:44:02;;;;;;;6.88;2.40;;;14.50;99.90;;;;;;5033463;28;20103;-60
2023/09/22 10:46:28;;;;;;;6.68;2.00;;;14.50;99.90;;;;;;5033625;28;20093;-58
2023/09/22 10:48:56;;;;;;;4.60;1.98;;;14.60;99.90;;;;;;5031552;28;20033;-60
2023/09/22 10:51:23;;;;;;;6.97;2.50;;;14.60;99.90;;;;;;5033607;28;20087;-59
2023/09/22 10:53:50;;;;;;;5.47;2.10;;;14.60;99.90;;;;;;5032228;28;20091;-55
2023/09/22 10:56:17;;;;;;;6.85;2.17;;;14.60;99.90;;;;;;5032474;28;20033;-55
2023/09/22 10:58:44;;;;;;;5.18;2.42;;;14.80;99.90;;;;;;5033444;28;20045;-59
2023/09/22 11:01:13;;;;;;;5.82;2.33;;;14.80;99.90;;;;;;5033600;28;20063;-56
2023/09/22 11:03:40;;;;;;;5.75;1.95;;;14.80;99.90;;;;;;5033555;28;20037;-56
2023/09/22 11:06:07;;;;;;;4.55;1.70;;;14.80;99.90;;;;;;5033564;28;20045;-58
2023/09/22 11:08:35;;;;;;;5.68;2.38;;;14.90;99.90;;;;;;5033331;28;20037;-53
2023/09/22 11:11:03;;;;;;;4.78;1.90;;;15.00;99.90;;;;;;5032853;28;20034;-58
2023/09/22 11:13:29;;;;;;;4.07;1.73;;;15.00;99.90;;;;;;5030655;28;20117;-56
2023/09/22 11:15:57;;;;;;;4.40;1.70;;;15.00;99.90;;;;;;5033394;28;20057;-62
2023/09/22 11:18:24;;;;;;;5.25;1.45;;;15.10;99.90;;;;;;5033470;28;20041;-61
2023/09/22 11:20:51;;;;;;;4.10;1.42;;;15.20;99.90;;;;;;5033297;28;20125;-59
2023/09/22 11:23:18;;;;;;;4.20;1.80;;;15.20;99.90;;;;;;5032782;28;20045;-60
2023/09/22 11:25:45;;;;;;;3.05;1.80;;;15.30;99.90;;;;;;5029399;28;20041;-60
2023/09/22 11:28:13;;;;;;;2.88;1.48;;;15.30;99.90;;;;;;5032854;28;20041;-56
2023/09/22 11:30:40;;;;;;;4.45;1.70;;;15.40;99.90;;;;;;5033559;28;20107;-57
2023/09/22 11:33:06;;;;;;;3.13;1.50;;;15.40;99.90;;;;;;5032789;28;20030;-60
2023/09/22 11:35:37;;;;;;;3.70;1.63;;;15.40;99.90;;;;;;5033144;28;20072;-53
2023/09/22 11:38:04;;;;;;;3.78;1.42;;;15.40;99.90;;;;;;5032887;28;20045;-59
2023/09/22 11:40:31;;;;;;;4.07;1.38;;;15.50;99.90;;;;;;5032110;28;20060;-57
2023/09/22 11:42:58;;;;;;;4.22;1.40;;;15.60;99.90;;;;;;5032538;28;20396;-60
2023/09/22 11:45:25;;;;;;;3.67;1.15;;;15.70;99.90;;;;;;5032665;28;20100;-57
2023/09/22 11:47:52;;;;;;;5.13;1.25;;;15.80;99.90;;;;;;5032559;28;20069;-63
2023/09/22 11:50:18;;;;;;;3.65;1.80;;;15.90;99.90;;;;;;5032329;28;20056;-53
2023/09/22 11:52:46;;;;;;;3.60;1.52;;;16.00;99.90;;;;;;5034581;28;20052;-59
2023/09/22 11:55:13;;;;;;;3.65;1.30;;;16.00;99.90;;;;;;5032812;28;20124;-57
2023/09/22 11:57:41;;;;;;;5.45;2.10;;;16.00;99.90;;;;;;5032751;28;20052;-60
2023/09/22 12:00:09;;;;;;;3.30;1.27;;;16.00;99.90;;;;;;5032843;28;20396;-57
2023/09/22 12:02:36;;;;;;;3.35;1.20;;;16.10;99.90;;;;;;5031826;28;20159;-62
2023/09/22 12:05:04;;;;;;;6.05;1.30;;;16.20;99.90;;;;;;5032636;28;20444;-58
2023/09/22 12:07:31;;;;;;;4.28;1.40;;;16.30;99.90;;;;;;5032603;28;20042;-59
2023/09/22 12:09:58;;;;;;;2.33;1.00;;;16.40;99.90;;;;;;5032657;28;20034;-61
2023/09/22 12:12:25;;;;;;;4.60;0.90;;;16.40;99.90;;;;;;5032547;28;20432;-64
2023/09/22 12:14:52;;;;;;;2.35;0.93;;;16.50;99.90;;;;;;5032742;28;20045;-61
2023/09/22 12:17:19;;;;;;;2.60;0.75;;;16.60;99.90;;;;;;5032820;28;20128;-62
2023/09/22 12:19:46;;;;;;;3.95;1.08;;;16.70;99.90;;;;;;5032676;28;20088;-59
2023/09/22 12:22:13;;;;;;;3.10;1.13;;;16.70;99.90;;;;;;5032507;28;20056;-58
2023/09/22 12:24:39;;;;;;;4.05;1.30;;;16.60;99.90;;;;;;5032476;28;20052;-58
2023/09/22 12:27:06;;;;;;;3.53;1.02;;;16.60;99.90;;;;;;5032486;28;20041;-56
2023/09/22 12:29:33;;;;;;;3.60;1.10;;;16.60;99.90;;;;;;5031506;28;20484;-58
2023/09/22 12:32:02;;;;;;;3.35;1.05;;;16.50;99.90;;;;;;5032415;28;20485;-58
2023/09/22 12:34:29;;;;;;;5.05;1.15;;;16.50;99.90;;;;;;5032314;28;20484;-60
2023/09/22 12:36:56;;;;;;;4.22;1.00;;;16.50;99.90;;;;;;5032253;28;20535;-60
2023/09/22 12:39:23;;;;;;;3.30;1.10;;;16.50;99.90;;;;;;5031073;28;20060;-61
2023/09/22 12:41:50;;;;;;;4.53;1.23;;;16.50;99.90;;;;;;5032566;28;20416;-58
2023/09/22 12:44:16;;;;;;;3.55;1.00;;;16.50;99.90;;;;;;5032330;28;20046;-52
2023/09/22 12:46:43;;;;;;;4.20;1.00;;;16.50;99.90;;;;;;5031638;28;20041;-58